Avoca, Pennsylvania
Current Conditions -  °F | °C
As of 11:54 PM on Saturday 22 Nov 2014 (Local Time) from KAVP Reporting Station
Broken Clouds Broken Clouds  
Wind Chill: 35°   Ceiling: 10000
Heat Index: 39°   Visibility: 10mi
Dew Point: 17°   Wind: 6mph
Humidity: 41%   Direction: 240°WSW
Pressure: 30.15"   Gusts: NA
Location:  41.3331°N, 75.7365°W
Report Text: KAVP 230454Z AUTO 24005KT 10SM BKN100 04/M08 A3015 RMK AO2 SLP216 T00391083 400561094
Loading
Personal Weather Stations






























Interactive Weather Map New forecast layout! Learn more

10-Day Weather Forecast

Advertisements
Track Severe Weather on mobile